createdAt,value
2022-11-07T00:01:45.815Z,8.06
2022-11-07T00:04:12.936Z,8.05
2022-11-07T00:06:39.851Z,8.00
2022-11-07T00:09:06.796Z,7.99
2022-11-07T00:11:33.893Z,8.02
2022-11-07T00:14:00.848Z,8.04
2022-11-07T00:16:28.873Z,8.11
2022-11-07T00:18:56.141Z,8.14
2022-11-07T00:21:23.051Z,8.17
2022-11-07T00:23:49.929Z,8.23
2022-11-07T00:26:17.057Z,8.24
2022-11-07T00:28:44.544Z,8.25
2022-11-07T00:31:12.935Z,8.28
2022-11-07T00:33:40.853Z,8.25
2022-11-07T00:36:08.719Z,8.21
2022-11-07T00:38:35.621Z,8.27
2022-11-07T00:41:05.244Z,8.32
2022-11-07T00:43:32.460Z,8.42
2022-11-07T00:46:01.592Z,8.40
2022-11-07T00:48:29.170Z,8.43
2022-11-07T00:50:56.117Z,8.42
2022-11-07T00:53:23.333Z,8.48
2022-11-07T00:55:50.416Z,8.48
2022-11-07T00:58:17.569Z,8.53
2022-11-07T01:00:44.396Z,8.48
2022-11-07T01:03:29.983Z,8.32
2022-11-07T01:06:01.576Z,8.29
2022-11-07T01:08:28.764Z,8.40
2022-11-07T01:10:55.742Z,8.37
2022-11-07T01:13:22.983Z,8.30
2022-11-07T01:15:50.397Z,8.27
2022-11-07T01:18:17.817Z,8.28
2022-11-07T01:20:44.687Z,8.32
2022-11-07T01:23:11.963Z,8.35
2022-11-07T01:25:39.646Z,8.29
2022-11-07T01:28:07.822Z,8.31
2022-11-07T01:30:39.173Z,8.31
2022-11-07T01:33:06.121Z,8.39
2022-11-07T01:35:33.780Z,8.53
2022-11-07T01:38:00.895Z,8.59
2022-11-07T01:40:27.847Z,8.62
2022-11-07T01:42:54.812Z,8.67
2022-11-07T01:45:28.226Z,8.71
2022-11-07T01:47:57.171Z,8.70
2022-11-07T01:50:25.006Z,8.73
2022-11-07T01:52:53.237Z,8.76
2022-11-07T01:55:32.450Z,8.76
2022-11-07T01:58:10.467Z,8.79
2022-11-07T02:00:37.434Z,8.78
2022-11-07T02:03:10.065Z,8.77
2022-11-07T02:05:50.677Z,8.76
2022-11-07T02:08:17.993Z,8.72
2022-11-07T02:10:44.852Z,8.73
2022-11-07T02:13:17.703Z,8.79
2022-11-07T02:15:44.849Z,8.75
2022-11-07T02:18:11.729Z,8.72
2022-11-07T02:20:38.585Z,8.77
2022-11-07T02:23:13.807Z,8.81
2022-11-07T02:25:41.057Z,8.78
2022-11-07T02:28:09.751Z,8.82
2022-11-07T02:30:37.008Z,8.82
2022-11-07T02:33:04.121Z,8.83
2022-11-07T02:35:45.170Z,8.88
2022-11-07T02:38:17.861Z,8.87
2022-11-07T02:40:48.130Z,8.87
2022-11-07T02:43:16.362Z,8.83
2022-11-07T02:45:45.196Z,8.80
2022-11-07T02:48:13.552Z,8.83
2022-11-07T02:50:41.524Z,8.85
2022-11-07T02:53:10.449Z,8.84
2022-11-07T02:55:37.640Z,8.83
2022-11-07T02:58:05.189Z,8.87
2022-11-07T03:00:32.057Z,8.82
2022-11-07T03:02:59.247Z,8.83
2022-11-07T03:05:26.654Z,8.90
2022-11-07T03:07:53.521Z,8.91
2022-11-07T03:10:20.612Z,8.93
2022-11-07T03:12:50.220Z,8.92
2022-11-07T03:15:19.777Z,8.91
2022-11-07T03:17:49.738Z,8.92
2022-11-07T03:20:16.601Z,8.94
2022-11-07T03:22:43.461Z,8.98
2022-11-07T03:25:10.560Z,8.92
2022-11-07T03:27:47.034Z,8.87
2022-11-07T03:30:14.257Z,8.88
2022-11-07T03:32:41.094Z,8.94
2022-11-07T03:35:08.325Z,8.92
2022-11-07T03:37:35.420Z,8.94
2022-11-07T03:40:02.297Z,8.97
2022-11-07T03:42:29.168Z,9.00
2022-11-07T03:44:56.303Z,8.99
2022-11-07T03:47:23.149Z,8.99
2022-11-07T03:49:50.017Z,9.00
2022-11-07T03:52:17.144Z,9.01
2022-11-07T03:54:43.996Z,9.02
2022-11-07T03:57:10.836Z,9.06
2022-11-07T03:59:37.964Z,9.04
2022-11-07T04:02:04.905Z,9.03
2022-11-07T04:04:32.127Z,9.02
2022-11-07T04:06:58.988Z,9.00
2022-11-07T04:09:25.837Z,9.02
2022-11-07T04:12:22.237Z,9.00
2022-11-07T04:15:07.596Z,8.96
2022-11-07T04:17:34.691Z,9.00
2022-11-07T04:20:01.520Z,9.02
2022-11-07T04:22:28.388Z,8.93
2022-11-07T04:24:55.508Z,8.87
2022-11-07T04:27:41.311Z,8.78
2022-11-07T04:30:29.962Z,8.75
2022-11-07T04:32:58.740Z,8.85
2022-11-07T04:35:28.497Z,8.83
2022-11-07T04:37:55.340Z,8.83
2022-11-07T04:40:22.180Z,8.82
2022-11-07T04:42:52.067Z,8.78
2022-11-07T04:45:21.786Z,8.81
2022-11-07T04:47:51.781Z,8.86
2022-11-07T04:50:21.692Z,9.08
2022-11-07T04:52:51.403Z,9.09
2022-11-07T04:55:24.537Z,9.00
2022-11-07T04:57:51.743Z,8.84
2022-11-07T05:00:22.057Z,8.84
2022-11-07T05:02:51.849Z,8.73
2022-11-07T05:05:21.933Z,8.64
2022-11-07T05:07:51.576Z,8.68
2022-11-07T05:10:24.339Z,8.67
2022-11-07T05:12:51.356Z,8.70
2022-11-07T05:15:21.665Z,8.72
2022-11-07T05:17:51.355Z,8.76
2022-11-07T05:20:31.045Z,8.77
2022-11-07T05:23:18.432Z,8.81
2022-11-07T05:25:50.656Z,8.79
2022-11-07T05:28:31.234Z,8.74
2022-11-07T05:31:02.821Z,8.77
2022-11-07T05:33:29.765Z,8.76
2022-11-07T05:35:56.959Z,8.76
2022-11-07T05:38:24.057Z,8.73
2022-11-07T05:40:50.898Z,8.76
2022-11-07T05:43:18.177Z,8.88
2022-11-07T05:45:45.468Z,8.88
2022-11-07T05:48:13.489Z,8.80
2022-11-07T05:50:41.058Z,8.87
2022-11-07T05:53:08.454Z,8.63
2022-11-07T05:55:35.336Z,8.66
2022-11-07T05:58:08.108Z,8.70
2022-11-07T06:00:35.250Z,8.80
2022-11-07T06:03:02.472Z,8.80
2022-11-07T06:05:29.444Z,8.97
2022-11-07T06:07:56.397Z,8.95
2022-11-07T06:10:24.197Z,9.02
2022-11-07T06:13:01.918Z,9.16
2022-11-07T06:15:30.407Z,9.03
2022-11-07T06:18:00.652Z,9.07
2022-11-07T06:20:28.399Z,9.13
2022-11-07T06:22:59.789Z,8.96
2022-11-07T06:25:27.682Z,8.96
2022-11-07T06:27:59.637Z,8.94
2022-11-07T06:30:26.929Z,9.02
2022-11-07T06:32:54.132Z,9.12
2022-11-07T06:35:21.120Z,9.12
2022-11-07T06:37:51.336Z,9.19
2022-11-07T06:40:21.228Z,9.17
2022-11-07T06:42:51.429Z,9.22
2022-11-07T06:45:18.285Z,9.31
2022-11-07T06:47:45.132Z,9.34
2022-11-07T06:50:12.244Z,9.42
2022-11-07T06:52:39.122Z,9.42
2022-11-07T06:55:06.370Z,9.38
2022-11-07T06:57:34.949Z,9.40
2022-11-07T07:00:05.370Z,9.40
2022-11-07T07:02:56.685Z,9.54
2022-11-07T07:05:21.225Z,9.60
2022-11-07T07:07:51.114Z,9.64
2022-11-07T07:10:21.080Z,9.71
2022-11-07T07:12:51.249Z,9.71
2022-11-07T07:15:21.348Z,9.74
2022-11-07T07:17:50.578Z,9.79
2022-11-07T07:20:20.554Z,9.90
2022-11-07T07:22:56.998Z,9.97
2022-11-07T07:25:26.427Z,10.00
2022-11-07T07:27:53.300Z,10.04
2022-11-07T07:30:20.161Z,10.11
2022-11-07T07:32:47.268Z,10.16
2022-11-07T07:35:14.124Z,10.19
2022-11-07T07:37:40.960Z,10.27
2022-11-07T07:40:08.747Z,10.38
2022-11-07T07:42:41.388Z,10.41
2022-11-07T07:45:09.878Z,10.44
2022-11-07T07:47:37.444Z,10.47
2022-11-07T07:50:06.136Z,10.46
2022-11-07T07:52:33.249Z,10.52
2022-11-07T07:55:00.155Z,10.39
2022-11-07T07:57:26.978Z,10.36
2022-11-07T07:59:54.125Z,10.41
2022-11-07T08:02:21.137Z,10.55
2022-11-07T08:04:48.243Z,10.58
2022-11-07T08:07:15.153Z,10.54
2022-11-07T08:09:41.997Z,10.53
2022-11-07T08:12:09.143Z,10.52
2022-11-07T08:14:36.173Z,10.60
2022-11-07T08:17:03.649Z,10.70
2022-11-07T08:19:30.790Z,10.84
2022-11-07T08:21:58.954Z,10.86
2022-11-07T08:24:25.772Z,10.98
2022-11-07T08:26:52.877Z,11.01
2022-11-07T08:29:19.707Z,11.17
2022-11-07T08:31:46.578Z,11.20
2022-11-07T08:34:13.811Z,11.28
2022-11-07T08:36:41.330Z,11.25
2022-11-07T08:39:08.178Z,11.27
2022-11-07T08:41:35.269Z,11.44
2022-11-07T08:44:02.130Z,11.43
2022-11-07T08:46:29.055Z,11.50
2022-11-07T08:48:56.140Z,11.47
2022-11-07T08:51:23.051Z,11.60
2022-11-07T08:53:49.892Z,11.71
2022-11-07T08:56:17.024Z,11.86
2022-11-07T08:58:44.632Z,11.94
2022-11-07T09:01:11.573Z,11.92
2022-11-07T09:03:46.073Z,11.98
2022-11-07T09:06:16.260Z,12.04
2022-11-07T09:08:43.577Z,12.06
2022-11-07T09:11:10.816Z,12.14
2022-11-07T09:13:37.915Z,12.14
2022-11-07T09:16:05.288Z,12.12
2022-11-07T09:18:32.374Z,12.18
2022-11-07T09:20:59.324Z,12.20
2022-11-07T09:23:26.720Z,12.23
2022-11-07T09:25:53.579Z,12.21
2022-11-07T09:28:20.430Z,12.24
2022-11-07T09:30:47.545Z,12.30
2022-11-07T09:33:14.601Z,12.25
2022-11-07T09:35:41.681Z,12.24
2022-11-07T09:38:08.798Z,12.27
2022-11-07T09:40:43.849Z,12.33
2022-11-07T09:43:24.246Z,12.35
2022-11-07T09:45:55.259Z,12.45
2022-11-07T09:48:24.309Z,12.45
2022-11-07T09:50:51.721Z,12.42
2022-11-07T09:53:28.673Z,12.56
2022-11-07T09:55:58.596Z,12.46
2022-11-07T09:58:38.153Z,12.44
2022-11-07T10:01:07.454Z,12.47
2022-11-07T10:03:36.441Z,12.58
2022-11-07T10:06:16.773Z,12.69
2022-11-07T10:08:45.969Z,12.74
2022-11-07T10:11:30.451Z,12.77
2022-11-07T10:14:31.464Z,12.76
2022-11-07T10:17:07.249Z,12.81
2022-11-07T10:19:41.447Z,12.74
2022-11-07T10:22:45.669Z,12.67
2022-11-07T10:25:29.692Z,12.70
2022-11-07T10:28:19.749Z,12.64
2022-11-07T10:30:52.089Z,12.70
2022-11-07T10:34:00.186Z,12.56
2022-11-07T10:36:32.121Z,12.56
2022-11-07T10:39:01.623Z,12.54
2022-11-07T10:41:31.668Z,12.57
2022-11-07T10:44:02.975Z,12.61
2022-11-07T10:46:47.797Z,12.64
2022-11-07T10:49:24.289Z,12.57
2022-11-07T10:51:51.687Z,12.54
2022-11-07T10:54:25.987Z,12.69
2022-11-07T10:57:20.793Z,12.56
2022-11-07T10:59:55.358Z,12.36
2022-11-07T11:02:28.507Z,12.41
2022-11-07T11:04:57.525Z,12.49
2022-11-07T11:07:28.559Z,12.40
2022-11-07T11:09:57.696Z,12.39
2022-11-07T11:12:34.510Z,12.35
2022-11-07T11:15:11.972Z,12.35
2022-11-07T11:17:39.558Z,12.46
2022-11-07T11:20:19.570Z,12.59
2022-11-07T11:22:46.677Z,12.72
2022-11-07T11:25:20.901Z,12.70
2022-11-07T11:27:55.575Z,12.67
2022-11-07T11:30:22.485Z,12.76
2022-11-07T11:32:58.428Z,12.70
2022-11-07T11:35:40.398Z,12.70
2022-11-07T11:38:28.500Z,12.74
2022-11-07T11:41:06.224Z,12.82
2022-11-07T11:44:00.802Z,12.72
2022-11-07T11:46:33.598Z,12.77
2022-11-07T11:49:08.528Z,12.35
2022-11-07T11:51:50.169Z,12.28
2022-11-07T11:54:17.359Z,12.22
2022-11-07T11:56:52.300Z,12.18
2022-11-07T11:59:40.672Z,12.14
2022-11-07T12:02:47.542Z,12.18
2022-11-07T12:05:23.989Z,12.08
2022-11-07T12:07:55.736Z,12.15
2022-11-07T12:10:30.255Z,12.09
2022-11-07T12:13:12.616Z,12.08
2022-11-07T12:16:13.046Z,12.22
2022-11-07T12:19:05.612Z,12.47
2022-11-07T12:21:34.630Z,12.74
2022-11-07T12:24:46.001Z,12.85
2022-11-07T12:27:26.594Z,13.17
2022-11-07T12:30:27.370Z,13.49
2022-11-07T12:33:01.289Z,13.74
2022-11-07T12:35:44.649Z,13.86
2022-11-07T12:38:36.688Z,14.08
2022-11-07T12:41:28.409Z,14.14
2022-11-07T12:44:15.520Z,14.23
2022-11-07T12:46:53.133Z,14.22
2022-11-07T12:49:38.972Z,14.24
2022-11-07T12:52:30.416Z,14.27
2022-11-07T12:54:57.459Z,13.85
2022-11-07T12:57:31.749Z,13.80
2022-11-07T13:00:07.987Z,13.55
2022-11-07T13:02:37.768Z,13.48
2022-11-07T13:05:21.228Z,13.57
2022-11-07T13:08:20.233Z,13.46
2022-11-07T13:10:47.235Z,13.36
2022-11-07T13:13:36.560Z,13.41
2022-11-07T13:16:22.184Z,13.55
2022-11-07T13:18:49.032Z,13.59
2022-11-07T13:21:18.453Z,13.50
2022-11-07T13:23:46.402Z,13.25
2022-11-07T13:26:45.110Z,13.02
2022-11-07T13:29:02.196Z,12.89
2022-11-07T13:31:33.283Z,12.87
2022-11-07T13:34:10.231Z,13.08
2022-11-07T13:36:37.176Z,13.37
2022-11-07T13:39:06.259Z,13.42
2022-11-07T13:41:34.816Z,13.58
2022-11-07T13:44:28.547Z,13.60
2022-11-07T13:46:57.205Z,13.93
2022-11-07T13:49:30.568Z,14.16
2022-11-07T13:52:08.988Z,13.66
2022-11-07T13:54:47.906Z,13.66
2022-11-07T13:57:15.950Z,13.74
2022-11-07T13:59:52.973Z,13.74
2022-11-07T14:02:20.426Z,13.73
2022-11-07T14:05:20.792Z,13.70
2022-11-07T14:07:58.092Z,13.72
2022-11-07T14:10:37.290Z,13.63
2022-11-07T14:13:07.409Z,13.63
2022-11-07T14:15:35.856Z,13.71
2022-11-07T14:18:03.457Z,13.74
2022-11-07T14:20:30.382Z,13.48
2022-11-07T14:23:00.664Z,13.42
2022-11-07T14:25:30.239Z,13.32
2022-11-07T14:27:57.746Z,13.23
2022-11-07T14:30:26.120Z,13.19
2022-11-07T14:32:57.900Z,13.27
2022-11-07T14:35:28.065Z,13.11
2022-11-07T14:37:56.905Z,12.91
2022-11-07T14:40:24.405Z,13.06
2022-11-07T14:42:51.830Z,13.05
2022-11-07T14:45:46.807Z,12.93
2022-11-07T14:48:12.132Z,12.79
2022-11-07T14:50:39.091Z,12.60
2022-11-07T14:53:09.353Z,12.52
2022-11-07T14:55:43.028Z,12.32
2022-11-07T14:58:11.300Z,12.23
2022-11-07T15:00:38.806Z,12.09
2022-11-07T15:03:05.725Z,11.92
2022-11-07T15:05:38.386Z,11.85
2022-11-07T15:08:05.651Z,11.75
2022-11-07T15:10:35.475Z,11.63
2022-11-07T15:13:05.377Z,11.44
2022-11-07T15:15:36.419Z,11.21
2022-11-07T15:18:06.005Z,11.05
2022-11-07T15:20:36.760Z,10.95
2022-11-07T15:23:12.745Z,10.90
2022-11-07T15:25:44.569Z,10.84
2022-11-07T15:28:17.986Z,10.74
2022-11-07T15:30:46.884Z,10.65
2022-11-07T15:33:14.287Z,10.50
2022-11-07T15:35:44.509Z,10.40
2022-11-07T15:38:17.505Z,10.28
2022-11-07T15:40:44.693Z,10.09
2022-11-07T15:43:11.676Z,9.95
2022-11-07T15:45:39.033Z,9.89
2022-11-07T15:48:07.302Z,9.67
2022-11-07T15:50:35.416Z,9.55
2022-11-07T15:53:02.535Z,9.36
2022-11-07T15:55:29.439Z,9.22
2022-11-07T15:57:56.336Z,9.08
2022-11-07T16:00:25.213Z,9.07
2022-11-07T16:02:52.514Z,9.02
2022-11-07T16:05:22.342Z,8.95
2022-11-07T16:07:49.284Z,8.85
2022-11-07T16:10:26.044Z,8.76
2022-11-07T16:12:53.753Z,8.68
2022-11-07T16:15:23.077Z,8.65
2022-11-07T16:17:52.967Z,8.62
2022-11-07T16:20:23.940Z,8.56
2022-11-07T16:22:53.432Z,8.51
2022-11-07T16:25:24.477Z,8.44
2022-11-07T16:27:56.119Z,8.41
2022-11-07T16:30:23.243Z,8.33
2022-11-07T16:32:53.073Z,8.28
2022-11-07T16:35:23.024Z,8.22
2022-11-07T16:37:53.060Z,8.14
2022-11-07T16:40:22.854Z,8.13
2022-11-07T16:42:52.721Z,8.15
2022-11-07T16:45:22.315Z,8.14
2022-11-07T16:47:52.052Z,8.05
2022-11-07T16:50:22.320Z,8.00
2022-11-07T16:52:52.261Z,7.92
2022-11-07T16:55:22.183Z,7.85
2022-11-07T16:57:51.891Z,7.83
2022-11-07T17:00:23.497Z,7.78
2022-11-07T17:02:51.082Z,7.75
2022-11-07T17:05:20.287Z,7.72
2022-11-07T17:07:51.666Z,7.73
2022-11-07T17:10:22.766Z,7.63
2022-11-07T17:12:52.692Z,7.57
2022-11-07T17:15:23.073Z,7.52
2022-11-07T17:17:57.956Z,7.48
2022-11-07T17:20:49.978Z,7.42
2022-11-07T17:23:16.133Z,7.45
2022-11-07T17:25:47.781Z,7.37
2022-11-07T17:28:14.942Z,7.34
2022-11-07T17:30:42.165Z,7.34
2022-11-07T17:33:09.347Z,7.34
2022-11-07T17:35:37.084Z,7.29
2022-11-07T17:38:04.126Z,7.24
2022-11-07T17:40:33.059Z,7.23
2022-11-07T17:43:00.507Z,7.20
2022-11-07T17:45:27.775Z,7.19
2022-11-07T17:47:54.962Z,7.20
2022-11-07T17:50:24.687Z,7.16
2022-11-07T17:52:54.600Z,7.14
2022-11-07T17:55:24.968Z,7.07
2022-11-07T17:57:51.923Z,7.04
2022-11-07T18:00:24.546Z,6.93
2022-11-07T18:02:54.635Z,6.94
2022-11-07T18:05:31.811Z,6.84
2022-11-07T18:08:00.993Z,6.82
2022-11-07T18:10:27.924Z,6.77
2022-11-07T18:12:56.960Z,6.79
2022-11-07T18:15:24.163Z,6.78
2022-11-07T18:17:54.079Z,6.75
2022-11-07T18:20:23.826Z,6.69
2022-11-07T18:22:50.940Z,6.66
2022-11-07T18:25:19.314Z,6.61
2022-11-07T18:27:46.168Z,6.62
2022-11-07T18:30:13.717Z,6.59
2022-11-07T18:32:40.745Z,6.56
2022-11-07T18:35:07.700Z,6.56
2022-11-07T18:37:34.814Z,6.55
2022-11-07T18:40:01.742Z,6.52
2022-11-07T18:42:29.305Z,6.54
2022-11-07T18:44:56.487Z,6.51
2022-11-07T18:47:23.417Z,6.50
2022-11-07T18:49:55.623Z,6.49
2022-11-07T18:52:24.180Z,6.53
2022-11-07T18:54:51.500Z,6.47
2022-11-07T18:57:18.375Z,6.44
2022-11-07T18:59:46.186Z,6.46
2022-11-07T19:02:13.913Z,6.50
2022-11-07T19:04:41.177Z,6.44
2022-11-07T19:07:08.287Z,6.44
2022-11-07T19:09:35.825Z,6.41
2022-11-07T19:12:02.945Z,6.36
2022-11-07T19:14:30.737Z,6.17
2022-11-07T19:16:57.958Z,6.05
2022-11-07T19:19:24.831Z,6.09
2022-11-07T19:21:52.017Z,6.06
2022-11-07T19:24:18.984Z,6.06
2022-11-07T19:26:45.889Z,6.04
2022-11-07T19:29:13.026Z,5.97
2022-11-07T19:31:40.029Z,5.88
2022-11-07T19:34:06.991Z,5.83
2022-11-07T19:36:35.320Z,5.80
2022-11-07T19:39:03.049Z,5.74
2022-11-07T19:41:29.955Z,5.76
2022-11-07T19:43:59.171Z,5.72
2022-11-07T19:46:26.048Z,5.68
2022-11-07T19:48:55.256Z,5.64
2022-11-07T19:51:23.226Z,5.53
2022-11-07T19:53:58.379Z,5.60
2022-11-07T19:56:27.931Z,5.60
2022-11-07T19:58:54.850Z,5.61
2022-11-07T20:01:24.728Z,5.58
2022-11-07T20:03:52.558Z,5.54
2022-11-07T20:06:26.210Z,5.55
2022-11-07T20:08:53.461Z,5.43
2022-11-07T20:11:22.445Z,5.44
2022-11-07T20:13:49.437Z,5.43
2022-11-07T20:16:17.081Z,5.35
2022-11-07T20:18:44.197Z,5.37
2022-11-07T20:21:14.428Z,5.39
2022-11-07T20:23:43.180Z,5.38
2022-11-07T20:26:18.769Z,5.39
2022-11-07T20:28:46.928Z,5.38
2022-11-07T20:31:15.431Z,5.40
2022-11-07T20:33:42.904Z,5.45
2022-11-07T20:36:12.984Z,5.52
2022-11-07T20:38:40.982Z,5.56
2022-11-07T20:41:08.131Z,5.53
2022-11-07T20:43:35.315Z,5.47
2022-11-07T20:46:06.777Z,5.43
2022-11-07T20:48:34.417Z,5.46
2022-11-07T20:51:13.220Z,5.44
2022-11-07T20:53:42.381Z,5.45
2022-11-07T20:56:12.931Z,5.35
2022-11-07T20:58:41.640Z,5.22
2022-11-07T21:01:12.642Z,5.10
2022-11-07T21:03:39.994Z,5.02
2022-11-07T21:06:11.287Z,4.89
2022-11-07T21:08:39.134Z,4.91
2022-11-07T21:11:06.296Z,4.94
2022-11-07T21:13:34.341Z,4.96
2022-11-07T21:16:01.574Z,4.94
2022-11-07T21:18:28.676Z,4.92
2022-11-07T21:21:04.082Z,4.94
2022-11-07T21:23:31.173Z,4.91
2022-11-07T21:25:58.514Z,4.89
2022-11-07T21:28:26.344Z,4.90
2022-11-07T21:31:01.230Z,4.87
2022-11-07T21:33:28.348Z,4.83
2022-11-07T21:35:55.463Z,4.78
2022-11-07T21:38:25.337Z,4.79
2022-11-07T21:40:52.948Z,4.78
2022-11-07T21:43:20.576Z,4.72
2022-11-07T21:45:47.448Z,4.67
2022-11-07T21:48:16.562Z,4.66
2022-11-07T21:50:45.257Z,4.51
2022-11-07T21:53:12.516Z,4.53
2022-11-07T21:55:39.358Z,4.49
2022-11-07T21:58:06.437Z,4.51
2022-11-07T22:00:36.471Z,4.60
2022-11-07T22:03:04.919Z,4.63
2022-11-07T22:05:31.780Z,4.59
2022-11-07T22:07:58.645Z,4.56
2022-11-07T22:10:25.785Z,4.54
2022-11-07T22:12:55.811Z,4.53
2022-11-07T22:15:25.678Z,4.57
2022-11-07T22:17:55.676Z,4.37
2022-11-07T22:20:25.330Z,4.24
2022-11-07T22:22:52.430Z,4.34
2022-11-07T22:25:19.265Z,4.30
2022-11-07T22:27:46.110Z,4.30
2022-11-07T22:30:13.369Z,4.35
2022-11-07T22:32:40.213Z,4.35
2022-11-07T22:35:09.344Z,4.34
2022-11-07T22:37:36.634Z,4.24
2022-11-07T22:40:03.594Z,4.24
2022-11-07T22:42:30.448Z,4.29
2022-11-07T22:44:57.537Z,4.18
2022-11-07T22:47:24.404Z,4.07
2022-11-07T22:49:51.227Z,4.08
2022-11-07T22:52:18.338Z,4.10
2022-11-07T22:54:45.181Z,4.05
2022-11-07T22:57:16.695Z,4.01
2022-11-07T22:59:44.862Z,3.99
2022-11-07T23:02:11.848Z,4.00
2022-11-07T23:04:38.773Z,3.95
2022-11-07T23:07:05.997Z,3.90
2022-11-07T23:09:32.837Z,3.92
2022-11-07T23:12:00.507Z,3.89
2022-11-07T23:14:27.652Z,3.93
2022-11-07T23:16:57.613Z,3.97
2022-11-07T23:19:25.814Z,3.93
2022-11-07T23:21:54.790Z,3.89
2022-11-07T23:24:21.704Z,3.88
2022-11-07T23:26:48.943Z,3.82
2022-11-07T23:29:18.977Z,3.73
2022-11-07T23:31:47.540Z,3.70
2022-11-07T23:34:14.862Z,3.63
2022-11-07T23:36:44.320Z,3.62
2022-11-07T23:39:16.598Z,3.64
2022-11-07T23:41:44.390Z,3.70
2022-11-07T23:44:11.729Z,3.68
2022-11-07T23:46:57.228Z,3.68
2022-11-07T23:49:42.904Z,3.66
2022-11-07T23:52:09.744Z,3.62
2022-11-07T23:54:55.501Z,3.56
2022-11-07T23:57:22.341Z,3.50
